createdAt,value
2018-09-21T00:00:44.036Z,12.37
2018-09-21T00:03:12.706Z,12.60
2018-09-21T00:05:41.082Z,11.90
2018-09-21T00:08:09.435Z,11.53
2018-09-21T00:10:37.765Z,12.50
2018-09-21T00:13:06.163Z,11.40
2018-09-21T00:15:34.671Z,12.60
2018-09-21T00:18:02.935Z,12.13
2018-09-21T00:20:31.283Z,12.27
2018-09-21T00:22:59.578Z,12.10
2018-09-21T00:25:27.935Z,13.60
2018-09-21T00:27:56.288Z,11.97
2018-09-21T00:30:24.697Z,10.70
2018-09-21T00:32:52.968Z,12.30
2018-09-21T00:35:21.414Z,12.30
2018-09-21T00:37:49.789Z,11.33
2018-09-21T00:40:18.120Z,11.90
2018-09-21T00:42:46.485Z,12.97
2018-09-21T00:45:14.836Z,12.27
2018-09-21T00:47:43.120Z,11.53
2018-09-21T00:50:11.452Z,11.50
2018-09-21T00:52:39.839Z,12.43
2018-09-21T00:55:08.256Z,12.87
2018-09-21T00:57:36.601Z,12.17
2018-09-21T01:00:05.496Z,12.00
2018-09-21T01:02:33.955Z,11.87
2018-09-21T01:05:02.332Z,11.03
2018-09-21T01:07:30.810Z,12.53
2018-09-21T01:09:59.110Z,13.20
2018-09-21T01:12:27.484Z,12.07
2018-09-21T01:14:55.806Z,12.37
2018-09-21T01:17:24.512Z,11.50
2018-09-21T01:19:52.882Z,12.90
2018-09-21T01:22:21.235Z,12.90
2018-09-21T01:24:49.717Z,12.60
2018-09-21T01:27:18.053Z,12.57
2018-09-21T01:29:46.347Z,11.83
2018-09-21T01:32:14.797Z,12.60
2018-09-21T01:34:43.132Z,11.73
2018-09-21T01:37:11.448Z,10.70
2018-09-21T01:39:39.821Z,11.60
2018-09-21T01:42:08.123Z,12.83
2018-09-21T01:44:36.443Z,11.20
2018-09-21T01:47:04.990Z,12.07
2018-09-21T01:49:33.620Z,11.67
2018-09-21T01:52:02.730Z,11.90
2018-09-21T01:54:31.116Z,12.40
2018-09-21T01:56:59.441Z,12.33
2018-09-21T01:59:27.779Z,12.80
2018-09-21T02:01:56.110Z,11.47
2018-09-21T02:04:29.453Z,12.50
2018-09-21T02:06:57.855Z,12.93
2018-09-21T02:09:26.274Z,12.77
2018-09-21T02:11:54.582Z,12.57
2018-09-21T02:14:23.052Z,12.67
2018-09-21T02:16:51.652Z,12.43
2018-09-21T02:19:20.283Z,12.30
2018-09-21T02:21:48.681Z,12.13
2018-09-21T02:24:17.405Z,13.43
2018-09-21T02:26:45.707Z,12.73
2018-09-21T02:29:14.035Z,13.33
2018-09-21T02:31:42.397Z,12.50
2018-09-21T02:34:10.799Z,12.70
2018-09-21T02:36:39.218Z,13.50
2018-09-21T02:39:08.586Z,12.93
2018-09-21T02:41:37.262Z,11.97
2018-09-21T02:44:05.967Z,12.03
2018-09-21T02:46:34.729Z,13.07
2018-09-21T02:49:03.325Z,12.83
2018-09-21T02:51:33.027Z,13.43
2018-09-21T02:54:01.310Z,12.87
2018-09-21T02:56:29.729Z,12.63
2018-09-21T02:58:58.069Z,12.57
2018-09-21T03:01:26.566Z,12.83
2018-09-21T03:03:54.883Z,13.50
2018-09-21T03:06:23.260Z,13.37
2018-09-21T03:08:51.679Z,14.40
2018-09-21T03:11:19.968Z,13.50
2018-09-21T03:13:48.361Z,12.93
2018-09-21T03:16:16.671Z,14.80
2018-09-21T03:18:44.956Z,13.77
2018-09-21T03:21:13.312Z,13.13
2018-09-21T03:23:41.667Z,13.13
2018-09-21T03:26:09.927Z,14.13
2018-09-21T03:28:38.371Z,13.07
2018-09-21T03:31:07.219Z,14.90
2018-09-21T03:33:35.667Z,12.60
2018-09-21T03:36:04.021Z,13.50
2018-09-21T03:38:33.818Z,13.70
2018-09-21T03:41:02.128Z,12.20
2018-09-21T03:43:30.504Z,13.57
2018-09-21T03:45:58.824Z,13.37
2018-09-21T03:48:28.005Z,13.27
2018-09-21T03:50:56.351Z,14.40
2018-09-21T03:53:24.683Z,12.67
2018-09-21T03:55:53.753Z,14.57
2018-09-21T03:58:22.135Z,14.40
2018-09-21T04:00:50.467Z,13.50
2018-09-21T04:03:18.807Z,14.63
2018-09-21T04:05:47.165Z,14.07
2018-09-21T04:08:15.568Z,14.50
2018-09-21T04:10:43.949Z,13.47
2018-09-21T04:13:12.263Z,15.30
2018-09-21T04:15:40.600Z,14.30
2018-09-21T04:18:08.961Z,13.93
2018-09-21T04:20:37.272Z,13.00
2018-09-21T04:23:05.601Z,23.17
2018-09-21T04:25:33.836Z,17.60
2018-09-21T04:28:02.149Z,14.13
2018-09-21T04:30:30.492Z,15.47
2018-09-21T04:32:59.361Z,13.43
2018-09-21T04:35:27.834Z,15.43
2018-09-21T04:37:56.200Z,13.90
2018-09-21T04:40:24.741Z,14.63
2018-09-21T04:42:53.597Z,13.70
2018-09-21T04:45:22.190Z,17.20
2018-09-21T04:47:50.506Z,15.40
2018-09-21T04:50:18.837Z,14.77
2018-09-21T04:52:47.167Z,14.33
2018-09-21T04:55:15.606Z,15.73
2018-09-21T04:57:43.954Z,15.07
2018-09-21T05:00:12.352Z,13.43
2018-09-21T05:02:40.734Z,13.60
2018-09-21T05:05:09.127Z,13.33
2018-09-21T05:07:37.593Z,13.27
2018-09-21T05:10:06.116Z,14.27
2018-09-21T05:12:34.469Z,13.17
2018-09-21T05:15:02.767Z,13.70
2018-09-21T05:17:31.535Z,13.77
2018-09-21T05:20:00.603Z,13.90
2018-09-21T05:22:29.489Z,12.80
2018-09-21T05:24:57.979Z,13.50
2018-09-21T05:27:26.408Z,13.90
2018-09-21T05:29:54.796Z,12.13
2018-09-21T05:32:23.790Z,12.97
2018-09-21T05:34:52.188Z,12.53
2018-09-21T05:37:20.896Z,13.30
2018-09-21T05:39:49.216Z,10.50
2018-09-21T05:42:17.515Z,12.93
2018-09-21T05:44:45.834Z,13.17
2018-09-21T05:47:14.361Z,13.00
2018-09-21T05:49:42.924Z,12.60
2018-09-21T05:52:11.732Z,12.40
2018-09-21T05:54:40.040Z,12.20
2018-09-21T05:57:08.352Z,11.80
2018-09-21T05:59:36.692Z,12.33
2018-09-21T06:02:05.090Z,11.40
2018-09-21T06:04:33.500Z,11.90
2018-09-21T06:07:01.768Z,10.67
2018-09-21T06:09:30.099Z,11.83
2018-09-21T06:11:58.557Z,11.10
2018-09-21T06:14:26.999Z,11.30
2018-09-21T06:16:55.398Z,11.53
2018-09-21T06:19:23.700Z,10.30
2018-09-21T06:21:52.289Z,9.47
2018-09-21T06:24:21.615Z,9.97
2018-09-21T06:26:50.250Z,10.10
2018-09-21T06:29:19.099Z,11.47
2018-09-21T06:31:47.395Z,10.30
2018-09-21T06:34:15.731Z,10.57
2018-09-21T06:36:44.068Z,9.40
2018-09-21T06:39:12.673Z,10.90
2018-09-21T06:41:41.172Z,11.33
2018-09-21T06:44:10.901Z,11.30
2018-09-21T06:46:39.281Z,10.43
2018-09-21T06:49:07.630Z,10.37
2018-09-21T06:51:35.949Z,10.57
2018-09-21T06:54:04.261Z,10.00
2018-09-21T06:56:32.619Z,12.03
2018-09-21T06:59:00.904Z,10.17
2018-09-21T07:01:29.338Z,11.00
2018-09-21T07:03:57.645Z,10.03
2018-09-21T07:06:25.925Z,10.47
2018-09-21T07:08:54.270Z,10.20
2018-09-21T07:11:22.598Z,10.30
2018-09-21T07:13:50.979Z,10.10
2018-09-21T07:16:19.317Z,9.50
2018-09-21T07:18:47.581Z,9.37
2018-09-21T07:21:15.912Z,9.47
2018-09-21T07:23:44.254Z,9.37
2018-09-21T07:26:12.577Z,10.70
2018-09-21T07:28:40.896Z,9.60
2018-09-21T07:31:09.294Z,9.43
2018-09-21T07:33:37.655Z,9.30
2018-09-21T07:36:06.020Z,8.17
2018-09-21T07:38:34.526Z,8.37
2018-09-21T07:41:02.953Z,9.80
2018-09-21T07:43:31.408Z,8.90
2018-09-21T07:45:59.721Z,8.73
2018-09-21T07:48:28.027Z,9.37
2018-09-21T07:50:56.468Z,8.27
2018-09-21T07:53:24.794Z,9.10
2018-09-21T07:55:53.182Z,8.33
2018-09-21T07:58:21.692Z,8.80
2018-09-21T08:00:50.057Z,8.70
2018-09-21T08:03:18.482Z,8.00
2018-09-21T08:05:46.831Z,8.37
2018-09-21T08:08:15.217Z,8.20
2018-09-21T08:10:43.516Z,7.80
2018-09-21T08:13:11.808Z,7.70
2018-09-21T08:15:40.084Z,7.67
2018-09-21T08:18:08.371Z,8.90
2018-09-21T08:20:36.650Z,9.73
2018-09-21T08:23:04.990Z,7.93
2018-09-21T08:25:33.267Z,8.70
2018-09-21T08:28:01.643Z,7.70
2018-09-21T08:30:29.965Z,7.53
2018-09-21T08:32:58.229Z,8.50
2018-09-21T08:35:26.470Z,7.97
2018-09-21T08:37:54.826Z,8.10
2018-09-21T08:40:23.310Z,8.67
2018-09-21T08:42:51.559Z,9.07
2018-09-21T08:45:19.857Z,9.20
2018-09-21T08:47:48.098Z,8.73
2018-09-21T08:50:16.345Z,8.20
2018-09-21T08:52:44.640Z,8.00
2018-09-21T08:55:12.969Z,8.30
2018-09-21T08:57:41.257Z,8.07
2018-09-21T09:00:09.524Z,8.40
2018-09-21T09:02:37.822Z,7.40
2018-09-21T09:05:06.397Z,7.20
2018-09-21T09:07:34.743Z,7.43
2018-09-21T09:10:03.062Z,6.43
2018-09-21T09:12:31.320Z,6.77
2018-09-21T09:14:59.587Z,7.60
2018-09-21T09:17:27.953Z,8.13
2018-09-21T09:19:56.235Z,6.13
2018-09-21T09:22:24.493Z,6.70
2018-09-21T09:24:53.024Z,6.73
2018-09-21T09:27:21.378Z,6.30
2018-09-21T09:29:49.666Z,7.47
2018-09-21T09:32:17.946Z,6.70
2018-09-21T09:34:46.289Z,6.60
2018-09-21T09:37:14.596Z,6.50
2018-09-21T09:39:43.028Z,7.50
2018-09-21T09:42:11.291Z,6.73
2018-09-21T09:44:39.592Z,7.27
2018-09-21T09:47:07.864Z,7.13
2018-09-21T09:49:36.303Z,7.03
2018-09-21T09:52:04.745Z,6.70
2018-09-21T09:54:33.160Z,6.80
2018-09-21T09:57:01.460Z,7.30
2018-09-21T09:59:29.783Z,6.57
2018-09-21T10:01:58.056Z,6.63
2018-09-21T10:04:26.384Z,6.13
2018-09-21T10:06:54.637Z,7.20
2018-09-21T10:09:22.903Z,6.83
2018-09-21T10:11:51.209Z,6.70
2018-09-21T10:14:19.469Z,7.57
2018-09-21T10:16:47.747Z,7.97
2018-09-21T10:19:16.016Z,7.40
2018-09-21T10:21:44.487Z,7.37
2018-09-21T10:24:12.823Z,6.33
2018-09-21T10:26:41.392Z,7.63
2018-09-21T10:29:09.677Z,7.20
2018-09-21T10:31:37.988Z,6.70
2018-09-21T10:34:06.392Z,6.80
2018-09-21T10:36:34.900Z,6.43
2018-09-21T10:39:03.286Z,6.70
2018-09-21T10:41:31.540Z,7.60
2018-09-21T10:43:59.867Z,6.97
2018-09-21T10:46:28.196Z,7.60
2018-09-21T10:48:56.536Z,6.80
2018-09-21T10:51:24.910Z,7.07
2018-09-21T10:53:53.202Z,7.33
2018-09-21T10:56:21.481Z,7.53
2018-09-21T10:58:49.838Z,7.00
2018-09-21T11:01:18.120Z,7.23
2018-09-21T11:03:46.872Z,7.60
2018-09-21T11:06:15.284Z,8.43
2018-09-21T11:08:43.657Z,7.20
2018-09-21T11:11:11.966Z,7.50
2018-09-21T11:13:40.456Z,8.30
2018-09-21T11:16:08.814Z,7.77
2018-09-21T11:18:37.039Z,7.90
2018-09-21T11:21:05.326Z,6.40
2018-09-21T11:23:34.346Z,7.33
2018-09-21T11:26:02.738Z,7.40
2018-09-21T11:28:31.022Z,7.03
2018-09-21T11:30:59.333Z,7.30
2018-09-21T11:33:27.616Z,6.53
2018-09-21T11:35:56.195Z,7.60
2018-09-21T11:38:24.722Z,6.73
2018-09-21T11:40:53.059Z,7.03
2018-09-21T11:43:21.511Z,7.40
2018-09-21T11:45:50.271Z,7.77
2018-09-21T11:48:18.797Z,6.50
2018-09-21T11:50:47.468Z,7.00
2018-09-21T11:53:16.167Z,7.47
2018-09-21T11:55:44.501Z,7.07
2018-09-21T11:58:13.384Z,6.43
2018-09-21T12:00:41.655Z,6.60
2018-09-21T12:03:10.089Z,7.03
2018-09-21T12:05:38.418Z,7.20
2018-09-21T12:08:06.698Z,7.00
2018-09-21T12:10:35.830Z,6.50
2018-09-21T12:13:04.226Z,7.80
2018-09-21T12:15:32.459Z,7.10
2018-09-21T12:18:00.864Z,7.07
2018-09-21T12:20:29.182Z,7.00
2018-09-21T12:22:57.588Z,7.13
2018-09-21T12:25:25.824Z,7.07
2018-09-21T12:27:54.370Z,6.67
2018-09-21T12:30:22.836Z,7.30
2018-09-21T12:32:51.095Z,7.13
2018-09-21T12:35:19.554Z,6.90
2018-09-21T12:37:47.868Z,7.57
2018-09-21T12:40:20.020Z,7.00
2018-09-21T12:42:48.269Z,6.37
2018-09-21T12:45:16.745Z,6.90
2018-09-21T12:47:45.007Z,7.03
2018-09-21T12:50:13.408Z,6.43
2018-09-21T12:52:41.688Z,7.20
2018-09-21T12:55:10.038Z,7.60
2018-09-21T12:57:38.557Z,7.80
2018-09-21T13:00:08.428Z,6.50
2018-09-21T13:02:37.254Z,7.80
2018-09-21T13:05:05.656Z,8.90
2018-09-21T13:07:34.006Z,7.77
2018-09-21T13:10:02.296Z,7.30
2018-09-21T13:12:30.677Z,7.20
2018-09-21T13:14:58.946Z,7.07
2018-09-21T13:17:27.546Z,7.50
2018-09-21T13:19:55.864Z,7.53
2018-09-21T13:22:24.322Z,6.80
2018-09-21T13:24:52.644Z,7.20
2018-09-21T13:27:20.897Z,8.00
2018-09-21T13:29:49.167Z,6.40
2018-09-21T13:32:17.648Z,7.00
2018-09-21T13:34:45.972Z,7.70
2018-09-21T13:37:14.263Z,6.63
2018-09-21T13:39:42.601Z,7.73
2018-09-21T13:42:10.985Z,7.40
2018-09-21T13:44:39.327Z,7.33
2018-09-21T13:47:07.645Z,6.43
2018-09-21T13:49:35.898Z,5.57
2018-09-21T13:52:04.353Z,6.20
2018-09-21T13:54:32.598Z,6.20
2018-09-21T13:57:00.941Z,6.50
2018-09-21T13:59:29.395Z,5.93
2018-09-21T14:01:57.760Z,6.77
2018-09-21T14:04:26.088Z,6.00
2018-09-21T14:06:54.427Z,6.90
2018-09-21T14:09:23.107Z,6.37
2018-09-21T14:11:51.550Z,5.70
2018-09-21T14:14:20.311Z,6.50
2018-09-21T14:16:48.626Z,5.90
2018-09-21T14:19:16.981Z,5.73
2018-09-21T14:21:45.308Z,7.37
2018-09-21T14:24:14.478Z,7.33
2018-09-21T14:26:42.815Z,6.43
2018-09-21T14:29:11.246Z,6.73
2018-09-21T14:31:39.528Z,6.77
2018-09-21T14:34:08.086Z,7.40
2018-09-21T14:36:36.382Z,6.77
2018-09-21T14:39:06.786Z,6.53
2018-09-21T14:41:35.115Z,5.97
2018-09-21T14:44:03.851Z,5.90
2018-09-21T14:46:32.196Z,6.57
2018-09-21T14:49:00.490Z,5.90
2018-09-21T14:51:29.056Z,6.20
2018-09-21T14:53:57.365Z,5.30
2018-09-21T14:56:25.712Z,4.30
2018-09-21T14:58:54.036Z,3.90
2018-09-21T15:01:22.491Z,4.00
2018-09-21T15:03:50.792Z,3.93
2018-09-21T15:06:19.407Z,3.17
2018-09-21T15:08:47.811Z,3.80
2018-09-21T15:11:16.195Z,3.43
2018-09-21T15:13:44.499Z,4.20
2018-09-21T15:16:12.853Z,3.77
2018-09-21T15:18:41.238Z,3.83
2018-09-21T15:21:09.504Z,3.53
2018-09-21T15:23:37.826Z,3.30
2018-09-21T15:26:06.240Z,4.33
2018-09-21T15:28:34.624Z,2.93
2018-09-21T15:31:02.904Z,3.53
2018-09-21T15:33:31.177Z,3.70
2018-09-21T15:35:59.675Z,5.63
2018-09-21T15:38:28.065Z,4.23
2018-09-21T15:40:56.364Z,4.10
2018-09-21T15:43:24.959Z,3.93
2018-09-21T15:45:53.265Z,3.30
2018-09-21T15:48:21.579Z,3.20
2018-09-21T15:50:50.136Z,1.70
2018-09-21T15:53:18.499Z,2.13
2018-09-21T15:55:46.829Z,0.83
2018-09-21T15:58:15.298Z,1.13
2018-09-21T16:00:43.590Z,0.70
2018-09-21T16:03:11.848Z,0.90
2018-09-21T16:05:40.207Z,0.90
2018-09-21T16:08:08.556Z,1.23
2018-09-21T16:10:36.959Z,1.00
2018-09-21T16:13:05.237Z,1.10
2018-09-21T16:15:33.534Z,1.20
2018-09-21T16:18:02.016Z,1.03
2018-09-21T16:20:30.289Z,1.10
2018-09-21T16:22:58.638Z,1.60
2018-09-21T16:25:27.229Z,1.50
2018-09-21T16:27:55.553Z,1.10
2018-09-21T16:30:23.948Z,0.90
2018-09-21T16:32:52.426Z,1.10
2018-09-21T16:35:20.808Z,1.30
2018-09-21T16:37:49.287Z,1.50
2018-09-21T16:40:20.040Z,1.77
2018-09-21T16:42:48.312Z,1.80
2018-09-21T16:45:16.637Z,2.10
2018-09-21T16:47:44.992Z,1.40
2018-09-21T16:50:13.421Z,2.37
2018-09-21T16:52:41.823Z,2.90
2018-09-21T16:55:10.117Z,1.60
2018-09-21T16:57:38.436Z,2.37
2018-09-21T17:00:07.923Z,2.60
2018-09-21T17:02:36.252Z,1.50
2018-09-21T17:05:04.588Z,2.10
2018-09-21T17:07:33.040Z,1.67
2018-09-21T17:10:01.470Z,1.40
2018-09-21T17:12:29.911Z,2.10
2018-09-21T17:14:59.170Z,2.93
2018-09-21T17:17:27.505Z,2.47
2018-09-21T17:19:55.859Z,1.83
2018-09-21T17:22:24.493Z,1.80
2018-09-21T17:24:52.836Z,1.80
2018-09-21T17:27:21.226Z,1.87
2018-09-21T17:29:49.830Z,1.30
2018-09-21T17:32:18.338Z,1.20
2018-09-21T17:34:46.600Z,1.00
2018-09-21T17:37:14.943Z,1.17
2018-09-21T17:39:43.226Z,2.03
2018-09-21T17:42:11.574Z,1.10
2018-09-21T17:44:39.986Z,1.60
2018-09-21T17:47:08.551Z,1.33
2018-09-21T17:49:36.856Z,2.10
2018-09-21T17:52:05.347Z,1.90
2018-09-21T17:54:33.776Z,1.63
2018-09-21T17:57:02.051Z,1.70
2018-09-21T17:59:30.397Z,1.90
2018-09-21T18:01:58.702Z,1.70
2018-09-21T18:04:27.106Z,1.80
2018-09-21T18:06:55.742Z,2.27
2018-09-21T18:09:24.089Z,1.93
2018-09-21T18:11:52.565Z,2.50
2018-09-21T18:14:21.111Z,2.13
2018-09-21T18:16:49.421Z,2.40
2018-09-21T18:19:17.801Z,2.30
2018-09-21T18:21:46.088Z,2.57
2018-09-21T18:24:14.452Z,2.37
2018-09-21T18:26:42.790Z,2.07
2018-09-21T18:29:11.901Z,2.20
2018-09-21T18:31:40.205Z,2.50
2018-09-21T18:34:08.536Z,3.00
2018-09-21T18:36:36.887Z,2.60
2018-09-21T18:39:06.736Z,3.07
2018-09-21T18:41:35.085Z,2.90
2018-09-21T18:44:03.959Z,2.50
2018-09-21T18:46:32.374Z,2.53
2018-09-21T18:49:00.978Z,2.57
2018-09-21T18:51:29.279Z,2.47
2018-09-21T18:53:57.631Z,1.97
2018-09-21T18:56:25.927Z,2.27
2018-09-21T18:58:54.296Z,2.17
2018-09-21T19:01:22.782Z,1.90
2018-09-21T19:03:51.232Z,1.70
2018-09-21T19:06:19.594Z,2.40
2018-09-21T19:08:48.074Z,1.97
2018-09-21T19:11:17.007Z,2.00
2018-09-21T19:13:45.376Z,1.67
2018-09-21T19:16:13.702Z,2.57
2018-09-21T19:18:42.048Z,1.70
2018-09-21T19:21:10.368Z,2.23
2018-09-21T19:23:38.681Z,2.70
2018-09-21T19:26:07.266Z,2.13
2018-09-21T19:28:35.698Z,2.80
2018-09-21T19:31:04.083Z,2.23
2018-09-21T19:33:32.450Z,2.47
2018-09-21T19:36:00.838Z,2.07
2018-09-21T19:38:29.197Z,1.50
2018-09-21T19:40:57.506Z,1.90
2018-09-21T19:43:25.876Z,2.17
2018-09-21T19:45:54.280Z,1.80
2018-09-21T19:48:22.727Z,1.60
2018-09-21T19:50:51.024Z,1.90
2018-09-21T19:53:19.347Z,1.60
2018-09-21T19:55:47.611Z,2.07
2018-09-21T19:58:16.106Z,1.83
2018-09-21T20:00:44.460Z,2.27
2018-09-21T20:03:12.800Z,2.40
2018-09-21T20:05:41.203Z,2.43
2018-09-21T20:08:09.481Z,2.47
2018-09-21T20:10:37.836Z,2.00
2018-09-21T20:13:06.317Z,2.33
2018-09-21T20:15:34.704Z,2.80
2018-09-21T20:18:03.095Z,1.67
2018-09-21T20:20:31.409Z,1.90
2018-09-21T20:22:59.842Z,1.90
2018-09-21T20:25:28.316Z,1.90
2018-09-21T20:27:56.632Z,2.40
2018-09-21T20:30:30.323Z,2.00
2018-09-21T20:33:04.046Z,1.47
2018-09-21T20:35:32.453Z,2.73
2018-09-21T20:38:00.799Z,2.10
2018-09-21T20:40:29.464Z,1.30
2018-09-21T20:42:57.797Z,1.40
2018-09-21T20:45:26.485Z,1.83
2018-09-21T20:47:54.847Z,1.70
2018-09-21T20:50:23.463Z,1.30
2018-09-21T20:52:51.886Z,1.97
2018-09-21T20:55:20.737Z,2.10
2018-09-21T20:57:49.152Z,1.30
2018-09-21T21:00:17.432Z,1.20
2018-09-21T21:02:45.934Z,1.47
2018-09-21T21:05:14.265Z,1.73
2018-09-21T21:07:42.648Z,2.40
2018-09-21T21:10:10.952Z,1.57
2018-09-21T21:12:39.220Z,2.13
2018-09-21T21:15:08.692Z,1.60
2018-09-21T21:17:37.371Z,1.40
2018-09-21T21:20:05.997Z,1.40
2018-09-21T21:22:34.465Z,2.07
2018-09-21T21:25:03.488Z,1.63
2018-09-21T21:27:31.975Z,1.70
2018-09-21T21:30:00.346Z,1.30
2018-09-21T21:32:28.701Z,1.47
2018-09-21T21:34:57.056Z,1.67
2018-09-21T21:37:25.672Z,1.20
2018-09-21T21:39:54.191Z,1.47
2018-09-21T21:42:22.644Z,1.37
2018-09-21T21:44:51.104Z,1.57
2018-09-21T21:47:26.124Z,1.30
2018-09-21T21:49:54.414Z,1.60
2018-09-21T21:52:22.756Z,1.27
2018-09-21T21:54:51.031Z,1.40
2018-09-21T21:57:19.441Z,1.93
2018-09-21T21:59:47.828Z,1.67
2018-09-21T22:02:16.178Z,1.33
2018-09-21T22:04:45.178Z,1.30
2018-09-21T22:07:13.689Z,1.50
2018-09-21T22:09:42.162Z,1.23
2018-09-21T22:12:16.101Z,1.17
2018-09-21T22:14:44.462Z,1.47
2018-09-21T22:17:13.537Z,1.13
2018-09-21T22:19:42.075Z,1.10
2018-09-21T22:22:10.410Z,1.30
2018-09-21T22:24:38.674Z,1.70
2018-09-21T22:27:07.073Z,1.83
2018-09-21T22:29:35.552Z,1.60
2018-09-21T22:32:03.889Z,1.40
2018-09-21T22:34:32.196Z,1.83
2018-09-21T22:37:00.550Z,1.23
2018-09-21T22:39:28.935Z,1.20
2018-09-21T22:41:57.281Z,1.40
2018-09-21T22:44:25.563Z,1.90
2018-09-21T22:46:55.527Z,1.43
2018-09-21T22:49:24.928Z,1.10
2018-09-21T22:51:53.301Z,1.37
2018-09-21T22:54:21.836Z,1.93
2018-09-21T22:56:50.361Z,1.73
2018-09-21T22:59:19.354Z,1.30
2018-09-21T23:01:49.208Z,1.70
2018-09-21T23:04:17.749Z,2.17
2018-09-21T23:06:46.373Z,1.27
2018-09-21T23:09:14.895Z,1.43
2018-09-21T23:11:44.026Z,1.83
2018-09-21T23:14:12.515Z,1.20
2018-09-21T23:16:41.194Z,1.57
2018-09-21T23:19:09.825Z,1.50
2018-09-21T23:21:38.595Z,1.87
2018-09-21T23:24:07.217Z,1.33
2018-09-21T23:26:35.572Z,1.80
2018-09-21T23:29:04.492Z,1.63
2018-09-21T23:31:33.506Z,1.83
2018-09-21T23:34:02.135Z,1.27
2018-09-21T23:36:30.655Z,1.40
2018-09-21T23:38:59.079Z,1.50
2018-09-21T23:41:27.671Z,1.30
2018-09-21T23:43:55.938Z,2.07
2018-09-21T23:46:24.269Z,1.50
2018-09-21T23:48:52.584Z,1.90
2018-09-21T23:51:20.955Z,1.73
2018-09-21T23:53:49.195Z,1.93
2018-09-21T23:56:17.565Z,1.53
2018-09-21T23:58:45.878Z,1.57
